Terminal Aerodrome Forecast
Issued by NWS

Home | Current Version | Previous Version | Text Only | Print | Product List | Glossary On
Versions: 1 2 3 4 5 6 7 8 9 10 11 12 13 14 15 16
000
FTAK31 PAFA 271740
TAFABT
TAF
PABT 271740Z 2718/2818 VRB03KT P6SM FEW060 SCT090
     FM272000 12004KT P6SM FEW060 SCT120 SCT200
     FM280600 VRB03KT P6SM SCT060 BKN120 BKN200=

USA.gov is the U.S. government's official web portal to all federal, state and local government web resources and services.